sensor_id;sensor_type;location;lat;lon;timestamp;pressure;altitude;pressure_sealevel;temperature;humidity
60832;BME280;46665;51.558;-0.448;2023-08-06T00:02:17;100704.09;;;11.52;100.00
60832;BME280;46665;51.558;-0.448;2023-08-06T00:04:42;100706.88;;;11.47;100.00
60832;BME280;46665;51.558;-0.448;2023-08-06T00:07:08;100710.72;;;11.41;100.00
60832;BME280;46665;51.558;-0.448;2023-08-06T00:09:33;100710.47;;;11.37;100.00
60832;BME280;46665;51.558;-0.448;2023-08-06T00:11:58;100716.19;;;11.36;100.00
60832;BME280;46665;51.558;-0.448;2023-08-06T00:14:24;100714.63;;;11.30;100.00
60832;BME280;46665;51.558;-0.448;2023-08-06T00:16:49;100720.88;;;11.30;100.00
60832;BME280;46665;51.558;-0.448;2023-08-06T00:19:15;100722.31;;;11.22;100.00
60832;BME280;46665;51.558;-0.448;2023-08-06T00:21:40;100720.97;;;11.20;100.00
60832;BME280;46665;51.558;-0.448;2023-08-06T00:24:05;100730.50;;;11.17;100.00
60832;BME280;46665;51.558;-0.448;2023-08-06T00:26:31;100742.25;;;11.13;100.00
60832;BME280;46665;51.558;-0.448;2023-08-06T00:28:56;100737.06;;;11.11;100.00
60832;BME280;46665;51.558;-0.448;2023-08-06T00:31:22;100740.09;;;11.10;100.00
60832;BME280;46665;51.558;-0.448;2023-08-06T00:33:47;100744.47;;;11.05;100.00
60832;BME280;46665;51.558;-0.448;2023-08-06T00:36:12;100755.66;;;11.04;100.00
60832;BME280;46665;51.558;-0.448;2023-08-06T00:38:38;100751.03;;;10.99;100.00
60832;BME280;46665;51.558;-0.448;2023-08-06T00:41:03;100756.22;;;10.96;100.00
60832;BME280;46665;51.558;-0.448;2023-08-06T00:43:28;100759.25;;;10.94;100.00
60832;BME280;46665;51.558;-0.448;2023-08-06T00:45:54;100764.97;;;10.93;100.00
60832;BME280;46665;51.558;-0.448;2023-08-06T00:48:20;100764.16;;;10.92;100.00
60832;BME280;46665;51.558;-0.448;2023-08-06T00:50:46;100771.50;;;10.92;100.00
60832;BME280;46665;51.558;-0.448;2023-08-06T00:53:12;100770.97;;;10.90;100.00
60832;BME280;46665;51.558;-0.448;2023-08-06T00:55:38;100775.88;;;10.88;100.00
60832;BME280;46665;51.558;-0.448;2023-08-06T00:58:04;100776.69;;;10.88;100.00
60832;BME280;46665;51.558;-0.448;2023-08-06T01:00:30;100788.91;;;10.91;100.00
60832;BME280;46665;51.558;-0.448;2023-08-06T01:02:55;100782.13;;;10.88;100.00
60832;BME280;46665;51.558;-0.448;2023-08-06T01:05:22;100787.03;;;10.86;100.00
60832;BME280;46665;51.558;-0.448;2023-08-06T01:08:02;100801.19;;;10.88;100.00
60832;BME280;46665;51.558;-0.448;2023-08-06T01:10:43;100789.25;;;10.84;100.00
60832;BME280;46665;51.558;-0.448;2023-08-06T01:13:37;100802.31;;;10.82;100.00
60832;BME280;46665;51.558;-0.448;2023-08-06T01:16:05;100795.78;;;10.78;100.00
60832;BME280;46665;51.558;-0.448;2023-08-06T01:18:31;100801.53;;;10.76;100.00
60832;BME280;46665;51.558;-0.448;2023-08-06T01:20:57;100806.66;;;10.78;100.00
60832;BME280;46665;51.558;-0.448;2023-08-06T01:23:23;100804.75;;;10.78;100.00
60832;BME280;46665;51.558;-0.448;2023-08-06T01:26:15;100812.69;;;10.75;100.00
60832;BME280;46665;51.558;-0.448;2023-08-06T01:31:42;100807.25;;;10.70;100.00
60832;BME280;46665;51.558;-0.448;2023-08-06T01:34:12;100809.97;;;10.70;100.00
60832;BME280;46665;51.558;-0.448;2023-08-06T01:36:40;100814.34;;;10.66;100.00
60832;BME280;46665;51.558;-0.448;2023-08-06T01:39:07;100812.97;;;10.63;100.00
60832;BME280;46665;51.558;-0.448;2023-08-06T01:41:32;100825.78;;;10.62;100.00
60832;BME280;46665;51.558;-0.448;2023-08-06T01:43:57;100822.81;;;10.59;100.00
60832;BME280;46665;51.558;-0.448;2023-08-06T01:46:23;100828.78;;;10.61;100.00
60832;BME280;46665;51.558;-0.448;2023-08-06T01:48:48;100827.72;;;10.57;100.00
60832;BME280;46665;51.558;-0.448;2023-08-06T01:51:13;100844.03;;;10.57;100.00
60832;BME280;46665;51.558;-0.448;2023-08-06T01:53:39;100835.63;;;10.53;100.00
60832;BME280;46665;51.558;-0.448;2023-08-06T01:56:04;100835.31;;;10.55;100.00
60832;BME280;46665;51.558;-0.448;2023-08-06T01:58:30;100836.13;;;10.55;100.00
60832;BME280;46665;51.558;-0.448;2023-08-06T02:00:55;100838.34;;;10.53;100.00
60832;BME280;46665;51.558;-0.448;2023-08-06T02:03:20;100834.53;;;10.49;100.00
60832;BME280;46665;51.558;-0.448;2023-08-06T02:05:46;100843.25;;;10.46;100.00
60832;BME280;46665;51.558;-0.448;2023-08-06T02:08:11;100841.59;;;10.50;100.00
60832;BME280;46665;51.558;-0.448;2023-08-06T02:10:37;100838.34;;;10.48;100.00
60832;BME280;46665;51.558;-0.448;2023-08-06T02:13:02;100843.25;;;10.46;100.00
60832;BME280;46665;51.558;-0.448;2023-08-06T02:15:27;100838.88;;;10.45;100.00
60832;BME280;46665;51.558;-0.448;2023-08-06T02:17:53;100845.41;;;10.44;100.00
60832;BME280;46665;51.558;-0.448;2023-08-06T02:20:18;100844.88;;;10.42;100.00
60832;BME280;46665;51.558;-0.448;2023-08-06T02:22:44;100838.88;;;10.40;100.00
60832;BME280;46665;51.558;-0.448;2023-08-06T02:25:09;100847.06;;;10.40;100.00
60832;BME280;46665;51.558;-0.448;2023-08-06T02:27:35;100851.69;;;10.39;100.00
60832;BME280;46665;51.558;-0.448;2023-08-06T02:30:00;100844.06;;;10.36;100.00
60832;BME280;46665;51.558;-0.448;2023-08-06T02:32:26;100843.28;;;10.36;100.00
60832;BME280;46665;51.558;-0.448;2023-08-06T02:34:51;100846.00;;;10.36;100.00
60832;BME280;46665;51.558;-0.448;2023-08-06T02:37:17;100849.78;;;10.35;100.00
60832;BME280;46665;51.558;-0.448;2023-08-06T02:39:42;100853.84;;;10.37;100.00
60832;BME280;46665;51.558;-0.448;2023-08-06T02:42:08;100851.44;;;10.36;100.00
60832;BME280;46665;51.558;-0.448;2023-08-06T02:44:34;100852.50;;;10.30;100.00
60832;BME280;46665;51.558;-0.448;2023-08-06T02:47:00;100847.63;;;10.32;100.00
60832;BME280;46665;51.558;-0.448;2023-08-06T02:49:26;100853.31;;;10.30;100.00
60832;BME280;46665;51.558;-0.448;2023-08-06T02:51:51;100860.13;;;10.28;100.00
60832;BME280;46665;51.558;-0.448;2023-08-06T02:54:18;100864.72;;;10.27;100.00
60832;BME280;46665;51.558;-0.448;2023-08-06T02:56:44;100867.72;;;10.26;100.00
60832;BME280;46665;51.558;-0.448;2023-08-06T02:59:11;100869.34;;;10.27;100.00
60832;BME280;46665;51.558;-0.448;2023-08-06T03:01:36;100862.81;;;10.23;100.00
60832;BME280;46665;51.558;-0.448;2023-08-06T03:04:02;100873.19;;;10.20;100.00
60832;BME280;46665;51.558;-0.448;2023-08-06T03:06:28;100874.78;;;10.22;100.00
60832;BME280;46665;51.558;-0.448;2023-08-06T03:08:53;100877.25;;;10.18;100.00
60832;BME280;46665;51.558;-0.448;2023-08-06T03:11:19;100876.72;;;10.16;100.00
60832;BME280;46665;51.558;-0.448;2023-08-06T03:13:44;100879.41;;;10.16;100.00
60832;BME280;46665;51.558;-0.448;2023-08-06T03:16:09;100869.91;;;10.13;100.00
60832;BME280;46665;51.558;-0.448;2023-08-06T03:18:35;100871.53;;;10.09;100.00
60832;BME280;46665;51.558;-0.448;2023-08-06T03:21:00;100871.53;;;10.09;100.00
60832;BME280;46665;51.558;-0.448;2023-08-06T03:23:26;100880.22;;;10.11;100.00
60832;BME280;46665;51.558;-0.448;2023-08-06T03:25:51;100853.84;;;10.07;100.00
60832;BME280;46665;51.558;-0.448;2023-08-06T03:28:17;100862.00;;;10.12;100.00
60832;BME280;46665;51.558;-0.448;2023-08-06T03:30:42;100872.63;;;10.08;100.00
60832;BME280;46665;51.558;-0.448;2023-08-06T03:33:07;100872.06;;;10.06;100.00
60832;BME280;46665;51.558;-0.448;2023-08-06T03:35:33;100876.97;;;10.04;100.00
60832;BME280;46665;51.558;-0.448;2023-08-06T03:37:58;100873.19;;;10.05;100.00
60832;BME280;46665;51.558;-0.448;2023-08-06T03:40:24;100883.50;;;10.03;100.00
60832;BME280;46665;51.558;-0.448;2023-08-06T03:42:49;100880.78;;;10.03;100.00
60832;BME280;46665;51.558;-0.448;2023-08-06T03:45:15;100890.00;;;10.02;100.00
60832;BME280;46665;51.558;-0.448;2023-08-06T03:47:40;100882.94;;;10.01;100.00
60832;BME280;46665;51.558;-0.448;2023-08-06T03:50:06;100896.00;;;9.99;100.00
60832;BME280;46665;51.558;-0.448;2023-08-06T03:52:31;100881.84;;;9.92;100.00
60832;BME280;46665;51.558;-0.448;2023-08-06T03:54:57;100901.16;;;9.90;100.00
60832;BME280;46665;51.558;-0.448;2023-08-06T03:57:22;100903.34;;;9.88;100.00
60832;BME280;46665;51.558;-0.448;2023-08-06T03:59:47;100895.72;;;9.85;100.00
60832;BME280;46665;51.558;-0.448;2023-08-06T04:02:13;100900.06;;;9.81;100.00
60832;BME280;46665;51.558;-0.448;2023-08-06T04:04:38;100903.03;;;9.80;100.00
60832;BME280;46665;51.558;-0.448;2023-08-06T04:07:04;100906.28;;;9.76;100.00
60832;BME280;46665;51.558;-0.448;2023-08-06T04:09:29;100896.78;;;9.74;100.00
60832;BME280;46665;51.558;-0.448;2023-08-06T04:11:54;100903.03;;;9.74;100.00
60832;BME280;46665;51.558;-0.448;2023-08-06T04:14:21;100915.81;;;9.74;100.00
60832;BME280;46665;51.558;-0.448;2023-08-06T04:16:46;100913.63;;;9.71;100.00
60832;BME280;46665;51.558;-0.448;2023-08-06T04:19:12;100919.59;;;9.68;100.00
60832;BME280;46665;51.558;-0.448;2023-08-06T04:21:37;100928.03;;;9.71;100.00
60832;BME280;46665;51.558;-0.448;2023-08-06T04:24:03;100917.69;;;9.68;100.00
60832;BME280;46665;51.558;-0.448;2023-08-06T04:26:28;100928.56;;;9.68;100.00
60832;BME280;46665;51.558;-0.448;2023-08-06T04:28:54;100920.41;;;9.68;100.00
60832;BME280;46665;51.558;-0.448;2023-08-06T04:31:19;100927.75;;;9.68;100.00
60832;BME280;46665;51.558;-0.448;2023-08-06T04:33:44;100939.44;;;9.68;100.00
60832;BME280;46665;51.558;-0.448;2023-08-06T04:36:10;100934.00;;;9.68;100.00
60832;BME280;46665;51.558;-0.448;2023-08-06T04:38:35;100941.34;;;9.68;100.00
60832;BME280;46665;51.558;-0.448;2023-08-06T04:41:02;100940.78;;;9.66;100.00
60832;BME280;46665;51.558;-0.448;2023-08-06T04:43:28;100944.31;;;9.66;100.00
60832;BME280;46665;51.558;-0.448;2023-08-06T04:45:54;100955.19;;;9.66;100.00
60832;BME280;46665;51.558;-0.448;2023-08-06T04:48:20;100955.47;;;9.65;100.00
60832;BME280;46665;51.558;-0.448;2023-08-06T04:50:47;100956.53;;;9.59;100.00
60832;BME280;46665;51.558;-0.448;2023-08-06T04:53:12;100966.59;;;9.63;100.00
60832;BME280;46665;51.558;-0.448;2023-08-06T04:55:38;100962.25;;;9.62;100.00
60832;BME280;46665;51.558;-0.448;2023-08-06T04:58:04;100968.19;;;9.59;100.00
60832;BME280;46665;51.558;-0.448;2023-08-06T05:00:30;100963.59;;;9.60;100.00
60832;BME280;46665;51.558;-0.448;2023-08-06T05:02:55;100978.25;;;9.59;100.00
60832;BME280;46665;51.558;-0.448;2023-08-06T05:05:21;100968.47;;;9.58;100.00
60832;BME280;46665;51.558;-0.448;2023-08-06T05:07:49;100982.34;;;9.61;100.00
60832;BME280;46665;51.558;-0.448;2023-08-06T05:10:15;100974.47;;;9.60;100.00
60832;BME280;46665;51.558;-0.448;2023-08-06T05:12:41;100977.47;;;9.63;100.00
60832;BME280;46665;51.558;-0.448;2023-08-06T05:15:06;100980.72;;;9.65;100.00
60832;BME280;46665;51.558;-0.448;2023-08-06T05:17:32;100983.44;;;9.65;100.00
60832;BME280;46665;51.558;-0.448;2023-08-06T05:19:57;100986.72;;;9.67;100.00
60832;BME280;46665;51.558;-0.448;2023-08-06T05:22:23;100999.47;;;9.72;100.00
60832;BME280;46665;51.558;-0.448;2023-08-06T05:24:48;100995.41;;;9.74;100.00
60832;BME280;46665;51.558;-0.448;2023-08-06T05:27:13;100995.44;;;9.80;100.00
60832;BME280;46665;51.558;-0.448;2023-08-06T05:29:39;100994.94;;;9.83;100.00
60832;BME280;46665;51.558;-0.448;2023-08-06T05:32:04;100996.81;;;9.82;100.00
60832;BME280;46665;51.558;-0.448;2023-08-06T05:34:30;100997.66;;;9.88;100.00
60832;BME280;46665;51.558;-0.448;2023-08-06T05:36:55;101005.81;;;9.93;100.00
60832;BME280;46665;51.558;-0.448;2023-08-06T05:39:21;101001.75;;;9.95;100.00
60832;BME280;46665;51.558;-0.448;2023-08-06T05:41:46;101010.72;;;9.96;100.00
60832;BME280;46665;51.558;-0.448;2023-08-06T05:44:11;101005.28;;;10.01;100.00
60832;BME280;46665;51.558;-0.448;2023-08-06T05:46:37;101013.22;;;10.08;100.00
60832;BME280;46665;51.558;-0.448;2023-08-06T05:49:02;101011.00;;;10.10;100.00
60832;BME280;46665;51.558;-0.448;2023-08-06T05:51:28;101014.59;;;10.20;100.00
60832;BME280;46665;51.558;-0.448;2023-08-06T05:53:54;101027.09;;;10.27;100.00
60832;BME280;46665;51.558;-0.448;2023-08-06T05:56:19;101022.78;;;10.31;100.00
60832;BME280;46665;51.558;-0.448;2023-08-06T05:58:45;101012.19;;;10.34;100.00
60832;BME280;46665;51.558;-0.448;2023-08-06T06:01:11;101016.00;;;10.38;100.00
60832;BME280;46665;51.558;-0.448;2023-08-06T06:03:37;101026.59;;;10.45;100.00
60832;BME280;46665;51.558;-0.448;2023-08-06T06:06:02;101035.31;;;10.52;100.00
60832;BME280;46665;51.558;-0.448;2023-08-06T06:08:28;101027.97;;;10.58;100.00
60832;BME280;46665;51.558;-0.448;2023-08-06T06:10:54;101037.22;;;10.62;100.00
60832;BME280;46665;51.558;-0.448;2023-08-06T06:13:19;101041.06;;;10.66;100.00
60832;BME280;46665;51.558;-0.448;2023-08-06T06:15:46;101039.69;;;10.69;100.00
60832;BME280;46665;51.558;-0.448;2023-08-06T06:18:13;101039.69;;;10.79;100.00
60832;BME280;46665;51.558;-0.448;2023-08-06T06:20:38;101042.13;;;10.85;100.00
60832;BME280;46665;51.558;-0.448;2023-08-06T06:23:03;101045.13;;;10.89;100.00
60832;BME280;46665;51.558;-0.448;2023-08-06T06:25:29;101040.50;;;10.95;100.00
60832;BME280;46665;51.558;-0.448;2023-08-06T06:27:54;101041.03;;;11.02;100.00
60832;BME280;46665;51.558;-0.448;2023-08-06T06:30:19;101044.56;;;11.07;100.00
60832;BME280;46665;51.558;-0.448;2023-08-06T06:32:45;101046.16;;;11.14;100.00
60832;BME280;46665;51.558;-0.448;2023-08-06T06:35:10;101040.44;;;11.20;100.00
60832;BME280;46665;51.558;-0.448;2023-08-06T06:37:36;101050.25;;;11.21;100.00
60832;BME280;46665;51.558;-0.448;2023-08-06T06:40:01;101051.06;;;11.27;100.00
60832;BME280;46665;51.558;-0.448;2023-08-06T06:42:26;101042.34;;;11.30;100.00
60832;BME280;46665;51.558;-0.448;2023-08-06T06:44:52;101054.28;;;11.39;100.00
60832;BME280;46665;51.558;-0.448;2023-08-06T06:47:17;101062.47;;;11.39;100.00
60832;BME280;46665;51.558;-0.448;2023-08-06T06:49:42;101049.13;;;11.43;100.00
60832;BME280;46665;51.558;-0.448;2023-08-06T06:52:08;101057.00;;;11.49;100.00
60832;BME280;46665;51.558;-0.448;2023-08-06T06:54:33;101054.81;;;11.52;100.00
60832;BME280;46665;51.558;-0.448;2023-08-06T06:56:59;101061.88;;;11.58;100.00
60832;BME280;46665;51.558;-0.448;2023-08-06T06:59:24;101064.31;;;11.64;100.00
60832;BME280;46665;51.558;-0.448;2023-08-06T07:01:49;101076.53;;;11.72;100.00
60832;BME280;46665;51.558;-0.448;2023-08-06T07:04:15;101068.34;;;11.77;100.00
60832;BME280;46665;51.558;-0.448;2023-08-06T07:06:40;101077.84;;;11.85;100.00
60832;BME280;46665;51.558;-0.448;2023-08-06T07:09:06;101067.78;;;11.90;100.00
60832;BME280;46665;51.558;-0.448;2023-08-06T07:11:31;101085.50;;;11.98;100.00
60832;BME280;46665;51.558;-0.448;2023-08-06T07:13:57;101083.53;;;12.04;100.00
60832;BME280;46665;51.558;-0.448;2023-08-06T07:16:23;101075.09;;;12.05;100.00
60832;BME280;46665;51.558;-0.448;2023-08-06T07:18:51;101081.34;;;12.11;100.00
60832;BME280;46665;51.558;-0.448;2023-08-06T07:21:17;101081.34;;;12.11;100.00
60832;BME280;46665;51.558;-0.448;2023-08-06T07:23:42;101087.03;;;12.14;100.00
60832;BME280;46665;51.558;-0.448;2023-08-06T07:26:08;101072.59;;;12.14;100.00
60832;BME280;46665;51.558;-0.448;2023-08-06T07:28:34;101086.72;;;12.21;100.00
60832;BME280;46665;51.558;-0.448;2023-08-06T07:30:59;101094.88;;;12.26;100.00
60832;BME280;46665;51.558;-0.448;2023-08-06T07:33:25;101087.22;;;12.33;100.00
60832;BME280;46665;51.558;-0.448;2023-08-06T07:35:50;101091.56;;;12.34;100.00
60832;BME280;46665;51.558;-0.448;2023-08-06T07:38:16;101090.16;;;12.42;100.00
60832;BME280;46665;51.558;-0.448;2023-08-06T07:40:41;101098.56;;;12.51;100.00
60832;BME280;46665;51.558;-0.448;2023-08-06T07:43:07;101088.75;;;12.50;100.00
60832;BME280;46665;51.558;-0.448;2023-08-06T07:45:36;101094.97;;;12.55;100.00
60832;BME280;46665;51.558;-0.448;2023-08-06T07:48:02;101096.28;;;12.63;100.00
60832;BME280;46665;51.558;-0.448;2023-08-06T07:50:28;101106.38;;;12.68;100.00
60832;BME280;46665;51.558;-0.448;2023-08-06T07:52:54;101105.28;;;12.69;100.00
60832;BME280;46665;51.558;-0.448;2023-08-06T07:55:19;101103.28;;;12.79;100.00
60832;BME280;46665;51.558;-0.448;2023-08-06T07:57:44;101116.31;;;12.88;100.00
60832;BME280;46665;51.558;-0.448;2023-08-06T08:00:10;101122.50;;;12.98;100.00
60832;BME280;46665;51.558;-0.448;2023-08-06T08:02:36;101122.72;;;13.07;100.00
60832;BME280;46665;51.558;-0.448;2023-08-06T08:05:01;101122.06;;;13.20;100.00
60832;BME280;46665;51.558;-0.448;2023-08-06T08:07:26;101116.56;;;13.26;100.00
60832;BME280;46665;51.558;-0.448;2023-08-06T08:09:54;101116.97;;;13.43;100.00
60832;BME280;46665;51.558;-0.448;2023-08-06T08:12:19;101112.16;;;13.59;100.00
60832;BME280;46665;51.558;-0.448;2023-08-06T08:14:45;101113.69;;;13.70;100.00
60832;BME280;46665;51.558;-0.448;2023-08-06T08:17:11;101109.50;;;13.78;100.00
60832;BME280;46665;51.558;-0.448;2023-08-06T08:19:36;101110.25;;;13.83;100.00
60832;BME280;46665;51.558;-0.448;2023-08-06T08:22:02;101121.94;;;13.89;100.00
60832;BME280;46665;51.558;-0.448;2023-08-06T08:24:28;101126.19;;;14.00;100.00
60832;BME280;46665;51.558;-0.448;2023-08-06T08:26:56;101127.63;;;14.17;100.00
60832;BME280;46665;51.558;-0.448;2023-08-06T08:29:22;101120.97;;;14.23;100.00
60832;BME280;46665;51.558;-0.448;2023-08-06T08:31:47;101121.34;;;14.35;100.00
60832;BME280;46665;51.558;-0.448;2023-08-06T08:34:16;101122.47;;;14.34;100.00
60832;BME280;46665;51.558;-0.448;2023-08-06T08:36:41;101118.84;;;14.39;100.00
60832;BME280;46665;51.558;-0.448;2023-08-06T08:39:07;101124.41;;;14.34;100.00
60832;BME280;46665;51.558;-0.448;2023-08-06T08:41:35;101116.84;;;14.44;100.00
60832;BME280;46665;51.558;-0.448;2023-08-06T08:44:01;101116.72;;;14.55;100.00
60832;BME280;46665;51.558;-0.448;2023-08-06T08:46:29;101125.84;;;14.69;100.00
60832;BME280;46665;51.558;-0.448;2023-08-06T08:48:56;101131.25;;;14.74;100.00
60832;BME280;46665;51.558;-0.448;2023-08-06T08:51:22;101131.38;;;14.83;100.00
60832;BME280;46665;51.558;-0.448;2023-08-06T08:53:49;101128.09;;;14.81;100.00
60832;BME280;46665;51.558;-0.448;2023-08-06T08:56:17;101130.84;;;14.81;100.00
60832;BME280;46665;51.558;-0.448;2023-08-06T08:58:42;101126.78;;;14.78;100.00
60832;BME280;46665;51.558;-0.448;2023-08-06T09:01:08;101136.94;;;14.78;100.00
60832;BME280;46665;51.558;-0.448;2023-08-06T09:03:36;101122.50;;;14.72;100.00
60832;BME280;46665;51.558;-0.448;2023-08-06T09:06:01;101148.41;;;14.80;100.00
60832;BME280;46665;51.558;-0.448;2023-08-06T09:08:34;101137.00;;;14.91;98.71
60832;BME280;46665;51.558;-0.448;2023-08-06T09:11:01;101144.03;;;14.98;99.54
60832;BME280;46665;51.558;-0.448;2023-08-06T09:13:27;101132.84;;;14.75;95.42
60832;BME280;46665;51.558;-0.448;2023-08-06T09:15:53;101143.75;;;14.61;99.27
60832;BME280;46665;51.558;-0.448;2023-08-06T09:18:31;101156.00;;;14.45;99.34
60832;BME280;46665;51.558;-0.448;2023-08-06T09:20:57;101158.72;;;14.26;100.00
60832;BME280;46665;51.558;-0.448;2023-08-06T09:23:32;101153.31;;;14.21;100.00
60832;BME280;46665;51.558;-0.448;2023-08-06T09:25:59;101155.66;;;14.27;100.00
60832;BME280;46665;51.558;-0.448;2023-08-06T09:28:38;101153.69;;;14.33;100.00
60832;BME280;46665;51.558;-0.448;2023-08-06T09:31:08;101155.91;;;14.31;100.00
60832;BME280;46665;51.558;-0.448;2023-08-06T09:33:36;101151.97;;;14.37;100.00
60832;BME280;46665;51.558;-0.448;2023-08-06T09:36:10;101154.91;;;14.46;100.00
60832;BME280;46665;51.558;-0.448;2023-08-06T09:38:40;101164.72;;;14.47;100.00
60832;BME280;46665;51.558;-0.448;2023-08-06T09:41:06;101166.59;;;14.51;100.00
60832;BME280;46665;51.558;-0.448;2023-08-06T09:43:42;101170.50;;;14.45;100.00
60832;BME280;46665;51.558;-0.448;2023-08-06T09:46:12;101173.22;;;14.45;100.00
60832;BME280;46665;51.558;-0.448;2023-08-06T09:48:38;101168.81;;;14.49;100.00
60832;BME280;46665;51.558;-0.448;2023-08-06T09:51:05;101185.94;;;14.60;100.00
60832;BME280;46665;51.558;-0.448;2023-08-06T09:53:33;101180.69;;;14.64;100.00
60832;BME280;46665;51.558;-0.448;2023-08-06T09:56:00;101174.69;;;14.62;100.00
60832;BME280;46665;51.558;-0.448;2023-08-06T09:58:25;101187.25;;;14.63;100.00
60832;BME280;46665;51.558;-0.448;2023-08-06T10:00:51;101181.19;;;14.66;100.00
60832;BME280;46665;51.558;-0.448;2023-08-06T10:03:17;101171.88;;;14.67;100.00
60832;BME280;46665;51.558;-0.448;2023-08-06T10:05:44;101181.34;;;14.74;100.00
60832;BME280;46665;51.558;-0.448;2023-08-06T10:08:09;101180.47;;;14.79;100.00
60832;BME280;46665;51.558;-0.448;2023-08-06T10:10:35;101190.84;;;14.82;100.00
60832;BME280;46665;51.558;-0.448;2023-08-06T10:13:02;101185.97;;;14.79;100.00
60832;BME280;46665;51.558;-0.448;2023-08-06T10:15:31;101197.19;;;14.78;99.97
60832;BME280;46665;51.558;-0.448;2023-08-06T10:17:59;101197.28;;;14.72;100.00
60832;BME280;46665;51.558;-0.448;2023-08-06T10:20:26;101204.44;;;14.68;99.25
60832;BME280;46665;51.558;-0.448;2023-08-06T10:23:05;101205.34;;;14.64;99.37
60832;BME280;46665;51.558;-0.448;2023-08-06T10:25:40;101204.88;;;14.57;98.53
60832;BME280;46665;51.558;-0.448;2023-08-06T10:28:10;101203.00;;;14.52;100.00
60832;BME280;46665;51.558;-0.448;2023-08-06T10:30:45;101213.88;;;14.38;100.00
60832;BME280;46665;51.558;-0.448;2023-08-06T10:33:11;101207.84;;;14.36;100.00
60832;BME280;46665;51.558;-0.448;2023-08-06T10:35:41;101207.06;;;14.36;100.00
60832;BME280;46665;51.558;-0.448;2023-08-06T10:38:11;101201.50;;;14.41;100.00
60832;BME280;46665;51.558;-0.448;2023-08-06T10:43:28;101200.25;;;14.33;100.00
60832;BME280;46665;51.558;-0.448;2023-08-06T10:45:54;101204.00;;;14.37;100.00
60832;BME280;46665;51.558;-0.448;2023-08-06T10:48:49;101210.59;;;14.36;100.00
60832;BME280;46665;51.558;-0.448;2023-08-06T10:51:14;101205.94;;;14.37;100.00
60832;BME280;46665;51.558;-0.448;2023-08-06T10:53:46;101205.66;;;14.38;100.00
60832;BME280;46665;51.558;-0.448;2023-08-06T10:56:20;101210.66;;;14.31;100.00
60832;BME280;46665;51.558;-0.448;2023-08-06T10:58:50;101208.19;;;14.29;100.00
60832;BME280;46665;51.558;-0.448;2023-08-06T11:01:16;101206.94;;;14.22;100.00
60832;BME280;46665;51.558;-0.448;2023-08-06T11:03:43;101212.47;;;14.17;100.00
60832;BME280;46665;51.558;-0.448;2023-08-06T11:06:09;101212.53;;;14.12;100.00
60832;BME280;46665;51.558;-0.448;2023-08-06T11:08:40;101215.59;;;14.05;100.00
60832;BME280;46665;51.558;-0.448;2023-08-06T11:11:14;101224.09;;;14.03;100.00
60832;BME280;46665;51.558;-0.448;2023-08-06T11:13:44;101227.13;;;14.02;100.00
60832;BME280;46665;51.558;-0.448;2023-08-06T11:16:16;101223.91;;;13.95;100.00
60832;BME280;46665;51.558;-0.448;2023-08-06T11:18:43;101214.81;;;13.75;100.00
60832;BME280;46665;51.558;-0.448;2023-08-06T11:21:08;101225.56;;;13.66;100.00
60832;BME280;46665;51.558;-0.448;2023-08-06T11:23:35;101225.66;;;13.56;100.00
60832;BME280;46665;51.558;-0.448;2023-08-06T11:26:00;101213.03;;;13.60;100.00
60832;BME280;46665;51.558;-0.448;2023-08-06T11:28:26;101218.41;;;13.71;100.00
60832;BME280;46665;51.558;-0.448;2023-08-06T11:30:52;101210.13;;;13.81;100.00
60832;BME280;46665;51.558;-0.448;2023-08-06T11:33:21;101212.69;;;13.96;100.00
60832;BME280;46665;51.558;-0.448;2023-08-06T11:35:48;101201.84;;;14.10;100.00
60832;BME280;46665;51.558;-0.448;2023-08-06T11:38:14;101203.91;;;14.23;100.00
60832;BME280;46665;51.558;-0.448;2023-08-06T11:40:39;101201.66;;;14.25;100.00
60832;BME280;46665;51.558;-0.448;2023-08-06T11:43:08;101199.78;;;14.26;100.00
60832;BME280;46665;51.558;-0.448;2023-08-06T11:45:37;101196.97;;;14.31;100.00
60832;BME280;46665;51.558;-0.448;2023-08-06T11:48:03;101193.13;;;14.32;100.00
60832;BME280;46665;51.558;-0.448;2023-08-06T11:50:31;101199.28;;;14.43;100.00
60832;BME280;46665;51.558;-0.448;2023-08-06T11:53:01;101198.13;;;14.49;100.00
60832;BME280;46665;51.558;-0.448;2023-08-06T11:55:28;101206.44;;;14.63;100.00
60832;BME280;46665;51.558;-0.448;2023-08-06T11:57:54;101207.56;;;14.81;100.00
60832;BME280;46665;51.558;-0.448;2023-08-06T12:00:22;101209.59;;;14.94;100.00
60832;BME280;46665;51.558;-0.448;2023-08-06T12:02:48;101213.78;;;15.05;100.00
60832;BME280;46665;51.558;-0.448;2023-08-06T12:05:20;101211.69;;;15.16;100.00
60832;BME280;46665;51.558;-0.448;2023-08-06T12:07:47;101209.94;;;15.39;100.00
60832;BME280;46665;51.558;-0.448;2023-08-06T12:10:14;101218.63;;;15.46;100.00
60832;BME280;46665;51.558;-0.448;2023-08-06T12:12:40;101212.03;;;15.47;100.00
60832;BME280;46665;51.558;-0.448;2023-08-06T12:15:06;101211.19;;;15.47;100.00
60832;BME280;46665;51.558;-0.448;2023-08-06T12:17:33;101210.19;;;15.43;100.00
60832;BME280;46665;51.558;-0.448;2023-08-06T12:19:58;101215.16;;;15.41;100.00
60832;BME280;46665;51.558;-0.448;2023-08-06T12:22:24;101220.09;;;15.38;100.00
60832;BME280;46665;51.558;-0.448;2023-08-06T12:24:50;101214.19;;;15.31;100.00
60832;BME280;46665;51.558;-0.448;2023-08-06T12:27:15;101216.66;;;15.33;100.00
60832;BME280;46665;51.558;-0.448;2023-08-06T12:29:46;101228.41;;;15.33;100.00
60832;BME280;46665;51.558;-0.448;2023-08-06T12:32:13;101215.13;;;15.27;100.00
60832;BME280;46665;51.558;-0.448;2023-08-06T12:34:39;101219.91;;;15.16;100.00
60832;BME280;46665;51.558;-0.448;2023-08-06T12:37:06;101213.84;;;15.19;100.00